createdAt,value
2018-04-25T00:01:31.620Z,11.96
2018-04-25T00:03:59.933Z,11.94
2018-04-25T00:06:28.260Z,11.91
2018-04-25T00:08:56.582Z,11.86
2018-04-25T00:11:24.899Z,11.84
2018-04-25T00:13:53.214Z,11.85
2018-04-25T00:16:21.548Z,11.84
2018-04-25T00:18:49.854Z,11.84
2018-04-25T00:21:18.168Z,11.84
2018-04-25T00:23:46.512Z,11.89
2018-04-25T00:26:14.829Z,11.86
2018-04-25T00:28:43.148Z,11.86
2018-04-25T00:31:11.498Z,11.91
2018-04-25T00:33:39.809Z,11.94
2018-04-25T00:36:08.119Z,11.95
2018-04-25T00:38:36.516Z,11.95
2018-04-25T00:41:04.847Z,11.96
2018-04-25T00:43:33.160Z,11.98
2018-04-25T00:46:01.475Z,11.93
2018-04-25T00:48:29.787Z,11.86
2018-04-25T00:50:58.147Z,11.86
2018-04-25T00:53:26.453Z,11.80
2018-04-25T00:55:54.775Z,11.85
2018-04-25T00:58:23.082Z,11.85
2018-04-25T01:00:52.322Z,11.83
2018-04-25T01:03:20.645Z,11.93
2018-04-25T01:05:48.968Z,11.91
2018-04-25T01:08:17.292Z,11.93
2018-04-25T01:10:45.623Z,11.93
2018-04-25T01:13:13.918Z,11.98
2018-04-25T01:15:42.236Z,12.05
2018-04-25T01:18:10.565Z,12.13
2018-04-25T01:20:38.908Z,12.20
2018-04-25T01:23:07.909Z,12.21
2018-04-25T01:25:40.162Z,12.27
2018-04-25T01:28:09.393Z,12.31
2018-04-25T01:30:48.293Z,12.39
2018-04-25T01:33:23.058Z,12.40
2018-04-25T01:35:54.911Z,12.44
2018-04-25T01:38:23.229Z,12.46
2018-04-25T01:40:51.569Z,12.55
2018-04-25T01:43:20.796Z,12.60
2018-04-25T01:49:01.673Z,12.69
2018-04-25T01:51:41.855Z,12.71
2018-04-25T01:54:22.034Z,12.68
2018-04-25T01:57:03.134Z,12.71
2018-04-25T01:59:44.001Z,12.71
2018-04-25T02:02:11.995Z,12.74
2018-04-25T02:04:40.440Z,12.77
2018-04-25T02:07:08.756Z,12.79
2018-04-25T02:09:37.082Z,12.81
2018-04-25T02:12:05.414Z,12.79
2018-04-25T02:14:33.885Z,12.83
2018-04-25T02:17:02.636Z,12.85
2018-04-25T02:19:31.816Z,12.91
2018-04-25T02:22:00.152Z,12.91
2018-04-25T02:24:28.493Z,12.94
2018-04-25T02:26:57.349Z,12.90
2018-04-25T02:29:26.274Z,12.92
2018-04-25T02:31:54.594Z,12.90
2018-04-25T02:34:23.033Z,12.91
2018-04-25T02:36:51.422Z,12.93
2018-04-25T02:39:19.815Z,12.96
2018-04-25T02:41:48.202Z,13.00
2018-04-25T02:44:16.523Z,12.98
2018-04-25T02:46:44.840Z,13.04
2018-04-25T02:49:13.178Z,13.08
2018-04-25T02:51:41.490Z,13.13
2018-04-25T02:54:09.867Z,13.14
2018-04-25T02:56:38.395Z,13.18
2018-04-25T02:59:06.743Z,13.17
2018-04-25T03:01:35.119Z,13.24
2018-04-25T03:04:03.450Z,13.30
2018-04-25T03:06:31.762Z,13.35
2018-04-25T03:09:00.105Z,13.37
2018-04-25T03:11:28.492Z,13.45
2018-04-25T03:13:56.902Z,13.48
2018-04-25T03:16:25.212Z,13.49
2018-04-25T03:18:53.529Z,13.53
2018-04-25T03:21:21.847Z,13.55
2018-04-25T03:23:50.248Z,13.54
2018-04-25T03:26:18.654Z,13.55
2018-04-25T03:28:47.044Z,13.58
2018-04-25T03:31:15.439Z,13.63
2018-04-25T03:33:43.779Z,13.66
2018-04-25T03:36:12.119Z,13.67
2018-04-25T03:38:40.467Z,13.66
2018-04-25T03:41:08.827Z,13.71
2018-04-25T03:43:37.139Z,13.70
2018-04-25T03:46:05.482Z,13.65
2018-04-25T03:48:33.794Z,13.66
2018-04-25T03:51:02.167Z,13.69
2018-04-25T03:53:30.489Z,13.63
2018-04-25T03:55:58.809Z,13.38
2018-04-25T03:58:27.141Z,13.19
2018-04-25T04:00:55.531Z,13.33
2018-04-25T04:03:23.841Z,13.38
2018-04-25T04:05:52.940Z,13.43
2018-04-25T04:08:21.256Z,13.56
2018-04-25T04:10:50.543Z,13.66
2018-04-25T04:13:20.124Z,13.74
2018-04-25T04:15:48.424Z,13.74
2018-04-25T04:18:16.745Z,13.82
2018-04-25T04:20:45.095Z,13.83
2018-04-25T04:23:13.441Z,13.85
2018-04-25T04:25:41.836Z,13.81
2018-04-25T04:28:10.216Z,13.86
2018-04-25T04:30:38.544Z,13.84
2018-04-25T04:33:06.886Z,13.85
2018-04-25T04:35:36.793Z,13.77
2018-04-25T04:38:05.120Z,13.75
2018-04-25T04:40:34.418Z,13.73
2018-04-25T04:43:03.022Z,13.68
2018-04-25T04:45:31.428Z,13.66
2018-04-25T04:47:59.745Z,13.94
2018-04-25T04:50:28.070Z,14.12
2018-04-25T04:52:56.511Z,14.27
2018-04-25T04:55:24.911Z,14.40
2018-04-25T04:57:53.757Z,14.46
2018-04-25T05:00:22.153Z,14.57
2018-04-25T05:02:50.502Z,14.61
2018-04-25T05:05:18.839Z,14.67
2018-04-25T05:07:47.159Z,14.80
2018-04-25T05:10:15.489Z,14.92
2018-04-25T05:12:43.918Z,15.11
2018-04-25T05:15:12.273Z,15.12
2018-04-25T05:17:40.582Z,15.23
2018-04-25T05:20:08.907Z,15.24
2018-04-25T05:22:37.310Z,15.22
2018-04-25T05:25:05.733Z,15.09
2018-04-25T05:27:34.050Z,15.22
2018-04-25T05:30:02.403Z,15.30
2018-04-25T05:32:30.736Z,15.48
2018-04-25T05:34:59.626Z,15.73
2018-04-25T05:37:27.951Z,16.02
2018-04-25T05:39:56.282Z,16.90
2018-04-25T05:42:24.616Z,17.84
2018-04-25T05:44:52.914Z,19.05
2018-04-25T05:47:21.244Z,19.75
2018-04-25T05:49:49.688Z,20.18
2018-04-25T05:52:18.042Z,20.47
2018-04-25T05:54:46.436Z,20.50
2018-04-25T05:57:14.828Z,20.76
2018-04-25T05:59:43.216Z,21.09
2018-04-25T06:02:11.578Z,21.44
2018-04-25T06:04:39.921Z,22.43
2018-04-25T06:07:10.527Z,22.98
2018-04-25T06:09:38.797Z,22.30
2018-04-25T06:12:07.230Z,23.04
2018-04-25T06:14:35.473Z,22.39
2018-04-25T06:17:03.807Z,21.87
2018-04-25T06:19:32.129Z,21.33
2018-04-25T06:22:00.465Z,21.29
2018-04-25T06:24:28.780Z,22.01
2018-04-25T06:26:57.180Z,23.44
2018-04-25T06:29:25.504Z,24.47
2018-04-25T06:31:53.812Z,25.39
2018-04-25T06:34:22.130Z,26.22
2018-04-25T06:36:50.561Z,26.59
2018-04-25T06:39:18.900Z,27.38
2018-04-25T06:41:47.202Z,26.33
2018-04-25T06:44:15.518Z,26.07
2018-04-25T06:46:43.885Z,25.12
2018-04-25T06:49:12.210Z,23.48
2018-04-25T06:51:40.527Z,22.42
2018-04-25T06:54:08.847Z,22.06
2018-04-25T06:56:37.164Z,21.62
2018-04-25T06:59:05.516Z,21.76
2018-04-25T07:01:33.823Z,22.33
2018-04-25T07:04:03.368Z,22.94
2018-04-25T07:06:31.677Z,22.94
2018-04-25T07:09:00.059Z,22.61
2018-04-25T07:11:28.366Z,22.12
2018-04-25T07:13:56.682Z,21.40
2018-04-25T07:16:24.993Z,21.07
2018-04-25T07:18:53.314Z,20.58
2018-04-25T07:21:21.720Z,20.38
2018-04-25T07:23:50.084Z,19.83
2018-04-25T07:26:18.408Z,19.64
2018-04-25T07:28:46.816Z,19.63
2018-04-25T07:31:15.304Z,19.65
2018-04-25T07:33:43.620Z,19.66
2018-04-25T07:36:11.957Z,19.63
2018-04-25T07:38:40.273Z,19.62
2018-04-25T07:41:08.647Z,19.62
2018-04-25T07:43:36.956Z,19.39
2018-04-25T07:46:05.346Z,19.27
2018-04-25T07:48:34.684Z,19.34
2018-04-25T07:51:03.040Z,19.62
2018-04-25T07:53:31.371Z,19.76
2018-04-25T07:55:59.715Z,20.17
2018-04-25T07:58:28.109Z,20.17
2018-04-25T08:00:56.500Z,19.98
2018-04-25T08:03:24.834Z,19.77
2018-04-25T08:05:53.213Z,20.08
2018-04-25T08:08:21.578Z,20.02
2018-04-25T08:10:49.910Z,20.02
2018-04-25T08:13:30.107Z,20.19
2018-04-25T08:16:10.336Z,20.43
2018-04-25T08:18:50.441Z,21.37
2018-04-25T08:21:30.663Z,21.58
2018-04-25T08:23:59.003Z,22.06
2018-04-25T08:26:27.344Z,21.69
2018-04-25T08:28:55.656Z,21.43
2018-04-25T08:31:24.030Z,20.94
2018-04-25T08:33:52.365Z,21.05
2018-04-25T08:36:20.716Z,21.03
2018-04-25T08:38:49.139Z,21.14
2018-04-25T08:41:17.532Z,21.51
2018-04-25T08:43:45.852Z,21.58
2018-04-25T08:46:14.284Z,21.93
2018-04-25T08:48:42.688Z,22.09
2018-04-25T08:51:11.708Z,22.33
2018-04-25T08:53:40.054Z,22.80
2018-04-25T08:56:08.465Z,23.27
2018-04-25T08:58:36.861Z,23.58
2018-04-25T09:01:05.212Z,23.90
2018-04-25T09:03:33.524Z,23.99
2018-04-25T09:06:02.515Z,23.77
2018-04-25T09:08:30.832Z,24.29
2018-04-25T09:10:59.151Z,23.67
2018-04-25T09:13:27.467Z,23.51
2018-04-25T09:15:55.811Z,23.46
2018-04-25T09:18:24.195Z,23.31
2018-04-25T09:20:52.592Z,23.12
2018-04-25T09:23:20.901Z,23.01
2018-04-25T09:25:49.260Z,22.89
2018-04-25T09:28:17.696Z,22.49
2018-04-25T09:30:46.046Z,22.43
2018-04-25T09:33:14.421Z,22.06
2018-04-25T09:38:17.369Z,23.06
2018-04-25T09:40:45.827Z,23.21
2018-04-25T09:43:14.323Z,22.85
2018-04-25T09:45:42.666Z,22.06
2018-04-25T09:48:11.000Z,21.58
2018-04-25T09:50:39.315Z,21.03
2018-04-25T09:53:07.725Z,20.95
2018-04-25T09:55:36.043Z,20.93
2018-04-25T09:58:04.420Z,20.91
2018-04-25T10:03:30.836Z,20.96
2018-04-25T10:05:59.141Z,20.86
2018-04-25T10:08:27.468Z,20.79
2018-04-25T10:10:55.861Z,20.75
2018-04-25T10:13:24.128Z,20.88
2018-04-25T10:15:52.448Z,21.11
2018-04-25T10:18:20.806Z,21.17
2018-04-25T10:20:49.453Z,21.10
2018-04-25T10:23:17.828Z,21.39
2018-04-25T10:25:46.752Z,21.58
2018-04-25T10:28:15.035Z,22.40
2018-04-25T10:30:43.405Z,22.46
2018-04-25T10:33:11.751Z,23.40
2018-04-25T10:35:41.397Z,23.99
2018-04-25T10:38:09.712Z,25.09
2018-04-25T10:40:38.056Z,25.83
2018-04-25T10:43:06.392Z,25.77
2018-04-25T10:45:34.701Z,25.30
2018-04-25T10:48:03.033Z,25.36
2018-04-25T10:50:31.355Z,24.79
2018-04-25T10:52:59.671Z,23.91
2018-04-25T10:55:28.068Z,23.58
2018-04-25T10:57:56.325Z,23.34
2018-04-25T11:00:24.663Z,23.16
2018-04-25T11:02:52.977Z,22.99
2018-04-25T11:05:21.291Z,23.05
2018-04-25T11:07:49.615Z,23.63
2018-04-25T11:10:17.947Z,23.94
2018-04-25T11:12:46.293Z,25.03
2018-04-25T11:15:14.638Z,25.21
2018-04-25T11:17:42.955Z,24.81
2018-04-25T11:20:12.267Z,24.76
2018-04-25T11:22:40.589Z,24.77
2018-04-25T11:25:08.929Z,24.89
2018-04-25T11:27:37.252Z,25.64
2018-04-25T11:30:05.563Z,26.15
2018-04-25T11:32:33.875Z,25.56
2018-04-25T11:35:02.194Z,25.27
2018-04-25T11:37:30.533Z,24.72
2018-04-25T11:39:58.851Z,24.38
2018-04-25T11:42:28.198Z,24.93
2018-04-25T11:44:56.524Z,25.51
2018-04-25T11:47:24.862Z,25.46
2018-04-25T11:49:53.185Z,25.51
2018-04-25T11:52:21.514Z,26.30
2018-04-25T11:54:49.843Z,26.18
2018-04-25T11:57:18.152Z,25.35
2018-04-25T11:59:46.602Z,24.69
2018-04-25T12:02:14.851Z,24.11
2018-04-25T12:04:43.176Z,23.88
2018-04-25T12:09:46.088Z,23.36
2018-04-25T12:12:14.474Z,23.13
2018-04-25T12:14:42.922Z,22.88
2018-04-25T12:17:11.224Z,22.89
2018-04-25T12:19:39.569Z,22.96
2018-04-25T12:22:07.888Z,22.70
2018-04-25T12:24:36.222Z,22.60
2018-04-25T12:27:04.530Z,22.63
2018-04-25T12:29:32.845Z,22.67
2018-04-25T12:32:01.169Z,22.27
2018-04-25T12:34:30.622Z,22.01
2018-04-25T12:36:58.935Z,21.79
2018-04-25T12:39:27.261Z,21.50
2018-04-25T12:41:55.588Z,21.24
2018-04-25T12:44:23.925Z,21.07
2018-04-25T12:46:52.239Z,20.73
2018-04-25T12:49:20.560Z,20.56
2018-04-25T12:51:48.892Z,20.59
2018-04-25T12:54:17.241Z,20.43
2018-04-25T12:56:45.564Z,20.17
2018-04-25T12:59:13.906Z,19.79
2018-04-25T13:01:42.296Z,18.95
2018-04-25T13:04:10.547Z,17.90
2018-04-25T13:06:38.875Z,17.34
2018-04-25T13:09:07.278Z,17.07
2018-04-25T13:11:35.533Z,16.93
2018-04-25T13:14:03.873Z,16.86
2018-04-25T13:16:32.187Z,16.92
2018-04-25T13:19:00.533Z,17.59
2018-04-25T13:21:28.873Z,18.91
2018-04-25T13:23:57.173Z,20.31
2018-04-25T13:26:25.500Z,21.01
2018-04-25T13:28:53.856Z,21.00
2018-04-25T13:31:22.135Z,20.72
2018-04-25T13:33:50.462Z,20.41
2018-04-25T13:36:18.798Z,20.18
2018-04-25T13:38:47.114Z,20.37
2018-04-25T13:41:15.440Z,21.32
2018-04-25T13:43:43.767Z,22.35
2018-04-25T13:46:12.088Z,22.25
2018-04-25T13:48:40.409Z,21.98
2018-04-25T13:51:08.749Z,21.48
2018-04-25T13:53:37.055Z,21.56
2018-04-25T13:56:05.372Z,21.28
2018-04-25T13:58:33.705Z,20.99
2018-04-25T14:01:02.030Z,20.69
2018-04-25T14:03:30.377Z,20.71
2018-04-25T14:05:58.677Z,21.45
2018-04-25T14:08:27.001Z,22.31
2018-04-25T14:10:55.328Z,22.06
2018-04-25T14:13:23.639Z,21.87
2018-04-25T14:15:51.977Z,21.75
2018-04-25T14:18:20.294Z,21.75
2018-04-25T14:20:48.686Z,21.66
2018-04-25T14:23:17.056Z,21.56
2018-04-25T14:25:45.375Z,21.42
2018-04-25T14:28:13.705Z,21.52
2018-04-25T14:30:42.066Z,21.35
2018-04-25T14:33:10.446Z,21.42
2018-04-25T14:35:38.759Z,21.24
2018-04-25T14:38:07.092Z,20.85
2018-04-25T14:40:35.425Z,20.59
2018-04-25T14:43:03.729Z,20.14
2018-04-25T14:45:32.075Z,19.79
2018-04-25T14:48:00.359Z,19.21
2018-04-25T14:50:28.685Z,18.54
2018-04-25T14:52:57.001Z,17.25
2018-04-25T14:55:25.315Z,16.41
2018-04-25T14:57:53.638Z,16.11
2018-04-25T15:00:21.956Z,15.88
2018-04-25T15:02:50.288Z,15.85
2018-04-25T15:05:18.656Z,15.51
2018-04-25T15:07:46.988Z,14.98
2018-04-25T15:10:15.337Z,14.61
2018-04-25T15:12:43.644Z,14.58
2018-04-25T15:15:12.000Z,14.61
2018-04-25T15:17:40.308Z,14.72
2018-04-25T15:20:08.652Z,14.79
2018-04-25T15:22:36.932Z,14.87
2018-04-25T15:25:05.252Z,14.96
2018-04-25T15:27:33.570Z,15.11
2018-04-25T15:30:01.900Z,15.17
2018-04-25T15:32:31.210Z,15.24
2018-04-25T15:34:59.529Z,15.29
2018-04-25T15:37:27.859Z,15.26
2018-04-25T15:39:56.360Z,15.17
2018-04-25T15:42:24.712Z,15.07
2018-04-25T15:44:54.157Z,15.02
2018-04-25T15:47:22.474Z,15.02
2018-04-25T15:49:50.858Z,15.06
2018-04-25T15:52:19.280Z,15.03
2018-04-25T15:54:47.612Z,15.07
2018-04-25T15:57:15.940Z,15.08
2018-04-25T15:59:44.271Z,15.09
2018-04-25T16:02:12.675Z,15.01
2018-04-25T16:04:41.011Z,14.98
2018-04-25T16:07:09.381Z,14.98
2018-04-25T16:09:37.709Z,14.95
2018-04-25T16:12:06.115Z,15.07
2018-04-25T16:14:34.467Z,15.27
2018-04-25T16:17:02.885Z,15.40
2018-04-25T16:19:31.154Z,15.49
2018-04-25T16:21:59.514Z,15.38
2018-04-25T16:24:27.843Z,15.25
2018-04-25T16:26:56.184Z,15.25
2018-04-25T16:29:24.512Z,15.21
2018-04-25T16:31:52.840Z,15.17
2018-04-25T16:34:21.160Z,15.19
2018-04-25T16:36:49.495Z,14.98
2018-04-25T16:39:17.800Z,14.74
2018-04-25T16:41:46.126Z,14.51
2018-04-25T16:44:14.450Z,14.28
2018-04-25T16:46:49.623Z,13.91
2018-04-25T16:49:17.953Z,13.70
2018-04-25T16:51:46.283Z,13.54
2018-04-25T16:54:15.820Z,13.38
2018-04-25T16:56:44.107Z,13.27
2018-04-25T16:59:12.461Z,13.15
2018-04-25T17:01:40.804Z,13.04
2018-04-25T17:04:09.165Z,12.96
2018-04-25T17:06:37.539Z,12.88
2018-04-25T17:09:05.827Z,12.83
2018-04-25T17:11:34.224Z,12.81
2018-04-25T17:14:02.556Z,12.75
2018-04-25T17:16:30.912Z,12.69
2018-04-25T17:18:59.286Z,12.70
2018-04-25T17:21:27.637Z,12.71
2018-04-25T17:23:56.088Z,12.70
2018-04-25T17:26:24.432Z,12.69
2018-04-25T17:28:52.801Z,12.71
2018-04-25T17:31:21.147Z,12.69
2018-04-25T17:33:49.475Z,12.77
2018-04-25T17:36:17.832Z,12.78
2018-04-25T17:38:46.165Z,12.82
2018-04-25T17:41:14.497Z,12.83
2018-04-25T17:43:42.913Z,12.88
2018-04-25T17:46:11.250Z,12.86
2018-04-25T17:48:39.594Z,12.73
2018-04-25T17:51:07.945Z,12.90
2018-04-25T17:53:36.315Z,13.01
2018-04-25T17:56:04.642Z,13.14
2018-04-25T17:58:33.043Z,13.04
2018-04-25T18:01:01.404Z,13.05
2018-04-25T18:03:29.776Z,13.00
2018-04-25T18:05:58.091Z,12.91
2018-04-25T18:08:26.440Z,12.89
2018-04-25T18:10:54.767Z,12.81
2018-04-25T18:13:23.114Z,12.72
2018-04-25T18:15:51.448Z,12.70
2018-04-25T18:18:20.199Z,12.65
2018-04-25T18:20:48.533Z,12.63
2018-04-25T18:23:16.905Z,12.54
2018-04-25T18:25:45.233Z,12.54
2018-04-25T18:28:13.583Z,12.48
2018-04-25T18:30:43.091Z,12.48
2018-04-25T18:33:11.441Z,12.41
2018-04-25T18:35:39.773Z,12.39
2018-04-25T18:38:08.124Z,12.34
2018-04-25T18:40:36.529Z,12.37
2018-04-25T18:43:04.875Z,12.34
2018-04-25T18:45:33.293Z,12.32
2018-04-25T18:48:01.621Z,12.36
2018-04-25T18:50:29.988Z,12.38
2018-04-25T18:52:58.349Z,12.39
2018-04-25T18:55:26.707Z,12.36
2018-04-25T18:57:55.056Z,12.37
2018-04-25T19:00:23.391Z,12.38
2018-04-25T19:02:51.743Z,12.37
2018-04-25T19:05:20.140Z,12.43
2018-04-25T19:07:48.452Z,12.42
2018-04-25T19:10:17.743Z,12.45
2018-04-25T19:12:47.062Z,12.47
2018-04-25T19:15:15.439Z,12.52
2018-04-25T19:17:44.383Z,12.56
2018-04-25T19:20:12.766Z,12.59
2018-04-25T19:22:41.109Z,12.57
2018-04-25T19:25:09.430Z,12.59
2018-04-25T19:27:37.803Z,12.58
2018-04-25T19:30:06.139Z,12.54
2018-04-25T19:32:34.482Z,12.47
2018-04-25T19:35:02.806Z,12.37
2018-04-25T19:37:31.177Z,12.28
2018-04-25T19:39:59.578Z,12.23
2018-04-25T19:42:27.947Z,12.21
2018-04-25T19:44:56.254Z,12.20
2018-04-25T19:47:24.612Z,12.15
2018-04-25T19:49:52.947Z,12.14
2018-04-25T19:52:21.292Z,12.12
2018-04-25T19:54:49.615Z,12.11
2018-04-25T19:57:18.021Z,12.10
2018-04-25T19:59:47.288Z,12.09
2018-04-25T20:02:15.668Z,12.11
2018-04-25T20:04:44.008Z,12.12
2018-04-25T20:07:12.357Z,12.12
2018-04-25T20:09:40.695Z,12.13
2018-04-25T20:12:09.125Z,12.14
2018-04-25T20:14:37.457Z,12.12
2018-04-25T20:17:05.821Z,12.14
2018-04-25T20:19:34.161Z,12.14
2018-04-25T20:22:02.560Z,12.18
2018-04-25T20:24:30.891Z,12.21
2018-04-25T20:26:59.240Z,12.26
2018-04-25T20:29:27.592Z,12.26
2018-04-25T20:31:55.933Z,12.23
2018-04-25T20:34:24.316Z,12.22
2018-04-25T20:36:52.668Z,12.31
2018-04-25T20:39:21.037Z,12.31
2018-04-25T20:41:49.468Z,12.31
2018-04-25T20:44:17.795Z,12.33
2018-04-25T20:46:46.209Z,12.30
2018-04-25T20:49:14.556Z,12.32
2018-04-25T20:51:42.928Z,12.27
2018-04-25T20:54:11.246Z,12.30
2018-04-25T20:56:39.577Z,12.23
2018-04-25T20:59:07.960Z,12.22
2018-04-25T21:01:36.341Z,12.18
2018-04-25T21:04:04.740Z,12.13
2018-04-25T21:06:33.063Z,12.10
2018-04-25T21:09:01.450Z,12.08
2018-04-25T21:11:29.823Z,12.04
2018-04-25T21:13:58.142Z,12.05
2018-04-25T21:16:26.502Z,11.96
2018-04-25T21:18:54.845Z,11.96
2018-04-25T21:21:23.934Z,11.96
2018-04-25T21:23:52.501Z,11.87
2018-04-25T21:26:20.809Z,11.80
2018-04-25T21:28:49.141Z,11.72
2018-04-25T21:31:17.531Z,11.69
2018-04-25T21:33:46.995Z,11.60
2018-04-25T21:36:15.345Z,11.58
2018-04-25T21:38:43.707Z,11.51
2018-04-25T21:41:12.053Z,11.50
2018-04-25T21:43:40.790Z,11.45
2018-04-25T21:46:09.176Z,11.45
2018-04-25T21:48:37.481Z,11.44
2018-04-25T21:51:05.856Z,11.49
2018-04-25T21:53:34.197Z,11.51
2018-04-25T21:56:02.537Z,11.52
2018-04-25T21:58:30.894Z,11.52
2018-04-25T22:00:59.237Z,11.58
2018-04-25T22:03:27.560Z,11.60
2018-04-25T22:05:55.899Z,11.58
2018-04-25T22:08:24.263Z,11.59
2018-04-25T22:10:52.653Z,11.60
2018-04-25T22:13:20.989Z,11.64
2018-04-25T22:15:49.336Z,11.58
2018-04-25T22:18:17.674Z,11.59
2018-04-25T22:20:46.021Z,11.55
2018-04-25T22:23:14.457Z,11.54
2018-04-25T22:25:42.707Z,11.55
2018-04-25T22:28:11.052Z,11.54
2018-04-25T22:30:39.394Z,11.55
2018-04-25T22:33:09.607Z,11.55
2018-04-25T22:35:37.935Z,11.52
2018-04-25T22:38:06.286Z,11.53
2018-04-25T22:40:34.629Z,11.53
2018-04-25T22:43:03.001Z,11.56
2018-04-25T22:45:31.358Z,11.54
2018-04-25T22:47:59.721Z,11.50
2018-04-25T22:50:28.093Z,11.44
2018-04-25T22:52:56.445Z,11.44
2018-04-25T22:55:24.777Z,11.45
2018-04-25T22:57:53.112Z,11.41
2018-04-25T23:00:21.464Z,11.36
2018-04-25T23:02:49.825Z,11.19
2018-04-25T23:05:19.312Z,11.16
2018-04-25T23:07:47.672Z,11.13
2018-04-25T23:10:15.996Z,11.06
2018-04-25T23:12:44.335Z,11.08
2018-04-25T23:15:12.674Z,11.03
2018-04-25T23:17:41.010Z,11.06
2018-04-25T23:20:09.351Z,11.10
2018-04-25T23:22:37.743Z,11.16
2018-04-25T23:25:06.167Z,11.10
2018-04-25T23:27:34.601Z,11.14
2018-04-25T23:30:02.951Z,11.05
2018-04-25T23:32:31.256Z,11.07
2018-04-25T23:34:59.605Z,11.13
2018-04-25T23:37:27.932Z,11.12
2018-04-25T23:39:56.283Z,11.12
2018-04-25T23:42:24.622Z,11.16
2018-04-25T23:44:52.975Z,11.16
2018-04-25T23:47:21.343Z,11.17
2018-04-25T23:49:49.689Z,11.16
2018-04-25T23:52:18.120Z,11.16
2018-04-25T23:54:46.445Z,11.15
2018-04-25T23:57:14.791Z,11.19
2018-04-25T23:59:43.196Z,11.21
